• Join FlightAware (Why Join?)
  • Login
  • US Flag 
07:40PM EDT


 

Airport Tracker/Info


-or-


 

Live Flight TrackerFlight Track Log ✈ N777NC ✈ 28-Jun-2013 ✈ KATL - KCAE

Flight Track Log - Related Links

Times and Time Zones

All times are in EDT time to prevent confusion due to time zone crossing. See the N777NC flight status page for this flight to view local times or setup timezone preferences in your user account.

Time Position Orientation Groundspeed Altitude Reporting Facility
EDT Latitude Longitude Course Direction KTS MPH feet Rate Location/Type
06:03PM 33.6167 -84.5167 85° East 237 273 3,500  Level Atlanta TRACON
06:04PM 33.5667 -84.5667 220° Southwest 263 303 5,900 2,280 Climbing Atlanta TRACON
06:05PM 33.4833 -84.5667 180° South 303 349 8,100 2,100 Climbing Atlanta TRACON
06:06PM 33.6183 -83.9087 92° East  Level FlightAware Approximate
06:06PM 33.4450 -84.4769 117° Southeast 285 328 10,500  Level Atlanta Center
06:07PM 33.6345 -83.7803 90° East  Level Estimated
06:07PM 33.4431 -84.3550 91° East 329 379 11,400  Level Atlanta Center
06:08PM 33.6505 -83.6518 85° East  Level Estimated
06:08PM 33.4581 -84.2256 82° East 379 436 13,600  Level Atlanta Center
06:09PM 33.4664 -84.1111 85° East 394 453 15,600 1,860 Climbing Atlanta Center
06:10PM 33.4686 -83.9767 89° East 394 453 17,400 1,800 Climbing Atlanta Center
06:11PM 33.4747 -83.8419 87° East 394 453 19,200 1,500 Climbing Atlanta Center
06:12PM 33.4869 -83.7125 84° East 394 453 20,500 1,140 Climbing Atlanta Center
06:13PM 33.5117 -83.5778 78° East 405 466 21,500 720 Climbing Atlanta Center
06:14PM 33.5822 -83.4678 52° Northeast 410 472 22,000 240 Climbing Atlanta Center
06:15PM 33.6483 -83.3525 55° Northeast 416 479 22,000  Level Atlanta Center
06:16PM 33.6872 -83.2300 69° East 387 445 22,000  Level Atlanta Center
06:17PM 33.7050 -83.0900 81° East 411 473 22,000 240 Level Atlanta Center
06:18PM 33.7225 -82.9325 82° East 422 486 22,500 480 Climbing Atlanta Center
06:19PM 33.7397 -82.7847 82° East 435 501 23,000 240 Climbing Atlanta Center
06:20PM 33.7569 -82.6297 82° East 452 520 23,000 -300 Level Atlanta Center
06:21PM 33.7528 -82.4697 92° East 464 534 22,500 -1,680 Descending Atlanta Center
06:22PM 33.7425 -82.3125 94° East 464 534 19,700 -2,700 Descending Atlanta Center
06:23PM 33.7531 -82.1800 84° East 453 521 17,100 -2,640 Descending Atlanta Center
06:25PM 33.7808 -81.9731 81° East 431 496 13,100 -2,400 Descending Jacksonville Center
06:26PM 33.7986 -81.8478 80° East 402 463 11,100 -1,020 Descending Jacksonville Center
06:27PM 33.8164 -81.7278 80° East 376 433 11,100 -60 Level Jacksonville Center
06:28PM 33.8300 -81.6150 82° East 353 406 11,000 -540 Descending Jacksonville Center
06:29PM 33.8392 -81.5050 84° East 338 389 10,100 -1,320 Descending Jacksonville Center
06:30PM 33.8464 -81.4072 85° East 316 364 8,400 -1,800 Descending Jacksonville Center
06:31PM 33.8453 -81.3072 91° East 294 338 6,600 -1,560 Descending Jacksonville Center
06:32PM 33.8461 -81.2097 89° East 287 330 5,300 -1,320 Descending Jacksonville Center
06:33PM 33.8489 -81.1222 88° East 276 318 4,000 -1,320 Descending Jacksonville Center